METAR AND TAF INFORMATION

METAR FOR KLRD
ADDS - METARS form results

(0024 UTC 05 December 2022)
Data provider http://aviationweather.gov/metar/data/
 
METAR text: KLRD 050009Z 01004KT 1SM BR OVC003 16/15 A3009 RMK AO2
Conditions at: KLRD (LAREDO , TX, US) observed 0009 UTC 05 December 2022
Temperature: 16.0°C (61°F)
Dewpoint: 15.0°C (59°F) [RH = 94%]
Pressure (altimeter): 30.09 inches Hg (1019.0 mb)
Winds: from the N (10 degrees) at 5 MPH (4 knots; 2.1 m/s)
Visibility: 1.00 miles (1.61 km)
Ceiling: 300 feet AGL
Clouds: overcast cloud deck at 300 feet AGL
Weather: BR  (mist)

METAR text: KLRD 042356Z 36003KT 1/2SM FG OVC003 16/15 A3010 RMK AO2 RAE25 SLP192 P0000 60000 T01560150 10156 20144 56007
Conditions at: KLRD (LAREDO , TX, US) observed 2356 UTC 04 December 2022
Temperature: 15.6°C (60°F)
Dewpoint: 15.0°C (59°F) [RH = 96%]
Pressure (altimeter): 30.10 inches Hg (1019.4 mb)
[Sea-level pressure: 1019.2 mb]
Winds: from the N (360 degrees) at 3 MPH (3 knots; 1.5 m/s)
Visibility: 0.50 miles (0.80 km)
Ceiling: 300 feet AGL
Clouds: overcast cloud deck at 300 feet AGL
Weather: FG  (fog)

METAR text: KLRD 042340Z 36004KT 1/2SM FG OVC003 16/15 A3010 RMK AO2 RAE25 P0000
Conditions at: KLRD (LAREDO , TX, US) observed 2340 UTC 04 December 2022
Temperature: 16.0°C (61°F)
Dewpoint: 15.0°C (59°F) [RH = 94%]
Pressure (altimeter): 30.10 inches Hg (1019.4 mb)
Winds: from the N (360 degrees) at 5 MPH (4 knots; 2.1 m/s)
Visibility: 0.50 miles (0.80 km)
Ceiling: 300 feet AGL
Clouds: overcast cloud deck at 300 feet AGL
Weather: FG  (fog)

Forecast for: KLRD (LAREDO , TX, US)
Text: KLRD 042326Z 0500/0524 VRB04KT 1SM BR OVC004
Forecast period: 0000 to 1700 UTC 05 December 2022
Forecast type: FROM: standard forecast or significant change
Winds: variable direction winds at 5 MPH (4 knots; 2.1 m/s)
Visibility: 1.00 miles (1.61 km)
Ceiling: 400 feet AGL
Clouds: overcast cloud deck at 400 feet AGL
Weather: BR  (mist)
Text: TEMPO 0500/0502 1/2SM FG
Forecast period: 0000 to 0200 UTC 05 December 2022
Forecast type: TEMPORARY: The following changes expected for less than half the time period
Visibility: 0.50 miles (0.80 km)
Ceiling: unknown
Clouds: missing
Weather: FG  (fog)
Text: FM051700 17008KT 6SM BR OVC015
Forecast period: 1700 to 2200 UTC 05 December 2022
Forecast type: FROM: standard forecast or significant change
Winds: from the S (170 degrees) at 9 MPH (8 knots; 4.1 m/s)
Visibility: 6 miles (10 km)
Ceiling: 1500 feet AGL
Clouds: overcast cloud deck at 1500 feet AGL
Weather: BR  (mist)
Text: FM052200 16008KT P6SM SCT025
Forecast period: 2200 UTC 05 December 2022 to 0000 UTC 06 December 2022
Forecast type: FROM: standard forecast or significant change
Winds: from the SSE (160 degrees) at 9 MPH (8 knots; 4.1 m/s)
Visibility: 6 or more miles (10+ km)
Ceiling: at least 12,000 feet AGL
Clouds: scattered clouds at 2500 feet AGL
Weather: no significant weather forecast for this period

 

AIRPORT MAP

 

RUNWAY INFORMATION

Runway 14 Runway length 5928 ft Runway width 150 ft
Runway elevation 505 ft Runway displaced threshold 0 ft Runway heading 147
Runway 32 Runway length 5928 ft Runway width 150 ft
Runway elevation 467 ft Runway displaced threshold 0 ft Runway heading 327
Runway 17L Runway length 8236 ft Runway width 150 ft
Runway elevation 499 ft Runway displaced threshold 0 ft Runway heading 183
Runway 35R Runway length 8236 ft Runway width 150 ft
Runway elevation 475 ft Runway displaced threshold 0 ft Runway heading 3
Runway 17R Runway length 7830 ft Runway width 150 ft
Runway elevation 504 ft Runway displaced threshold 0 ft Runway heading 183
Runway 35L Runway length 7830 ft Runway width 150 ft
Runway elevation 484 ft Runway displaced threshold 0 ft Runway heading 3

 

AIRPORT FREQUENCIES

Type ATIS Name ATIS Frequency 125.775 MHZ
Type CNTR Name HOUSTON CN Frequency 127.8 MHZ
Type CTAF Name CTAF Frequency 120.1 MHZ
Type GND Name GND Frequency 121.8 MHZ
Type RDO Name SAN ANGELO Frequency 122.3 MHZ
Type TWR Name TWR Frequency 120.1 MHZ
Type UNIC Name UNICOM Frequency 122.95 MHZ

 

AIRPORT NEAR NAVIGATION AIDS

Type NDB Name Pekks Frequency 405 KHZ